Time;durP1;ratioP1;P1;durP2;ratioP2;P2;SDS_P1;SDS_P2;PMS_P1;PMS_P2;Temp;Humidity;BMP_temperature;BMP_pressure;BME280_temperature;BME280_humidity;BME280_pressure;Samples;Min_cycle;Max_cycle;Signal;HPM_P1;HPM_P2
2023/10/22 00:00:48;;;;;;;2.25;0.05;;;;;;;14.28;100.00;99730.53;5091226;28;20021;-68
2023/10/22 00:03:14;;;;;;;0.30;0.10;;;;;;;14.30;100.00;99723.31;5092196;28;20024;-68
2023/10/22 00:05:40;;;;;;;0.80;0.00;;;;;;;14.32;100.00;99733.59;5087589;28;20188;-68
2023/10/22 00:08:06;;;;;;;0.55;0.00;;;;;;;14.32;100.00;99736.22;5089402;28;20040;-68
2023/10/22 00:10:31;;;;;;;0.10;0.00;;;;;;;14.32;100.00;99729.19;5092660;28;20093;-67
2023/10/22 00:12:57;;;;;;;0.05;0.00;;;;;;;14.33;100.00;99736.03;5091016;28;20032;-68
2023/10/22 00:15:23;;;;;;;0.20;0.10;;;;;;;14.33;100.00;99745.72;5090769;28;20114;-68
2023/10/22 00:17:49;;;;;;;0.35;0.00;;;;;;;14.22;100.00;99742.56;5090042;28;20056;-68
2023/10/22 00:20:14;;;;;;;0.82;0.03;;;;;;;14.10;100.00;99749.31;5095813;28;20048;-68
2023/10/22 00:22:40;;;;;;;0.30;0.10;;;;;;;14.00;100.00;99748.78;5088813;28;20122;-68
2023/10/22 00:25:06;;;;;;;0.20;0.00;;;;;;;13.97;100.00;99751.78;5089359;28;20032;-68
2023/10/22 00:27:34;;;;;;;0.00;0.00;;;;;;;13.92;100.00;99747.09;5087493;28;20044;-68
2023/10/22 00:30:00;;;;;;;0.00;0.00;;;;;;;13.92;100.00;99749.72;5076593;28;20086;-68
2023/10/22 00:32:27;;;;;;;0.10;0.00;;;;;;;13.90;100.00;99748.25;5079998;28;20048;-68
2023/10/22 00:34:52;;;;;;;0.25;0.00;;;;;;;13.92;100.00;99754.13;5088111;28;20055;-68
2023/10/22 00:37:17;;;;;;;0.10;0.00;;;;;;;13.93;100.00;99756.56;5091435;28;20125;-68
2023/10/22 00:39:43;;;;;;;1.90;0.00;;;;;;;13.92;100.00;99768.03;5087473;28;20060;-68
2023/10/22 00:42:10;;;;;;;0.20;0.00;;;;;;;13.97;100.00;99767.50;5089898;28;20110;-68
2023/10/22 00:44:35;;;;;;;0.55;0.00;;;;;;;14.02;100.00;99767.75;5090532;28;20036;-68
2023/10/22 00:47:02;;;;;;;0.13;0.00;;;;;;;14.09;100.00;99768.66;5081488;28;20104;-68
2023/10/22 00:49:28;;;;;;;3.75;0.00;;;;;;;14.12;100.00;99768.28;5090803;28;20070;-68
2023/10/22 00:51:55;;;;;;;0.15;0.00;;;;;;;14.14;100.00;99766.28;5090924;28;20056;-68
2023/10/22 00:54:21;;;;;;;0.15;0.00;;;;;;;14.10;100.00;99770.28;5086571;28;20042;-68
2023/10/22 00:56:49;;;;;;;0.03;0.00;;;;;;;14.14;100.00;99774.16;5081655;28;20028;-68
2023/10/22 00:59:14;;;;;;;0.47;0.00;;;;;;;14.08;100.00;99777.50;5086136;28;20037;-68
2023/10/22 01:01:40;;;;;;;1.20;0.00;;;;;;;14.01;100.00;99779.22;5091193;28;20032;-68
2023/10/22 01:04:06;;;;;;;1.88;0.08;;;;;;;13.99;100.00;99780.41;5087785;28;20115;-69
2023/10/22 01:06:35;;;;;;;0.43;0.00;;;;;;;13.99;100.00;99781.22;5085278;28;20384;-68
2023/10/22 01:09:01;;;;;;;2.25;0.00;;;;;;;13.97;100.00;99783.22;5089664;28;20036;-68
2023/10/22 01:11:27;;;;;;;1.88;0.00;;;;;;;13.99;100.00;99793.50;5084415;28;20500;-69
2023/10/22 01:13:53;;;;;;;0.13;0.00;;;;;;;13.99;100.00;99791.69;5090401;28;20035;-69
2023/10/22 01:16:19;;;;;;;0.75;0.00;;;;;;;14.00;100.00;99790.69;5088599;28;20031;-68
2023/10/22 01:18:44;;;;;;;0.40;0.00;;;;;;;14.02;100.00;99790.53;5087202;28;20494;-69
2023/10/22 01:21:10;;;;;;;0.30;0.00;;;;;;;14.02;100.00;99786.09;5086197;28;20037;-69
2023/10/22 01:23:39;;;;;;;0.20;0.00;;;;;;;14.01;100.00;99796.75;5080133;28;20036;-68
2023/10/22 01:26:06;;;;;;;0.10;0.00;;;;;;;14.01;100.00;99788.88;5081497;28;20060;-68
2023/10/22 01:28:35;;;;;;;0.47;0.00;;;;;;;13.98;100.00;99797.94;5076607;28;20039;-68
2023/10/22 01:31:01;;;;;;;0.28;0.00;;;;;;;14.02;100.00;99796.56;5088480;28;20157;-68
2023/10/22 01:33:27;;;;;;;0.52;0.00;;;;;;;14.06;100.00;99802.25;5083650;28;20025;-68
2023/10/22 01:35:52;;;;;;;0.20;0.00;;;;;;;14.09;100.00;99802.69;5083113;28;20360;-68
2023/10/22 01:38:18;;;;;;;0.10;0.00;;;;;;;14.05;100.00;99800.63;5097505;28;20417;-68
2023/10/22 01:40:43;;;;;;;0.60;0.00;;;;;;;14.06;100.00;99805.69;5087249;28;20066;-68
2023/10/22 01:43:08;;;;;;;0.03;0.00;;;;;;;14.11;100.00;99807.75;5091327;28;20487;-68
2023/10/22 01:45:34;;;;;;;0.20;0.00;;;;;;;14.04;100.00;99814.72;5087987;28;20031;-68
2023/10/22 01:47:59;;;;;;;0.00;0.00;;;;;;;14.05;100.00;99808.50;5088001;28;20482;-68
2023/10/22 01:50:25;;;;;;;2.03;0.10;;;;;;;14.00;100.00;99813.47;5086479;28;20039;-68
2023/10/22 01:52:50;;;;;;;0.28;0.00;;;;;;;13.99;100.00;99820.50;5087489;28;20025;-68
2023/10/22 01:55:16;;;;;;;1.23;0.00;;;;;;;14.01;100.00;99818.50;5086648;28;20105;-68
2023/10/22 01:57:41;;;;;;;5.43;0.00;;;;;;;14.01;100.00;99821.13;5088223;28;20039;-68
2023/10/22 02:00:10;;;;;;;1.27;0.00;;;;;;;14.01;100.00;99823.75;5086397;28;20043;-68
2023/10/22 02:02:36;;;;;;;0.80;0.00;;;;;;;14.03;100.00;99821.75;5086235;28;20024;-69
2023/10/22 02:05:02;;;;;;;0.10;0.00;;;;;;;14.02;100.00;99828.00;5081667;28;20051;-68
2023/10/22 02:07:28;;;;;;;0.10;0.00;;;;;;;14.04;100.00;99831.25;5081869;28;20056;-68
2023/10/22 02:09:54;;;;;;;0.65;0.00;;;;;;;14.00;100.00;99826.56;5085142;28;20066;-68
2023/10/22 02:12:29;;;;;;;1.30;0.00;;;;;;;13.97;100.00;99834.78;5085248;28;20024;-67
2023/10/22 02:14:54;;;;;;;1.23;0.00;;;;;;;13.89;100.00;99833.06;5078535;28;20876;-67
2023/10/22 02:17:20;;;;;;;0.17;0.00;;;;;;;13.90;100.00;99839.91;5089067;28;20024;-68
2023/10/22 02:19:45;;;;;;;0.00;0.00;;;;;;;13.93;100.00;99844.78;5084694;28;20044;-67
2023/10/22 02:22:12;;;;;;;0.05;0.00;;;;;;;13.93;100.00;99845.59;5080809;28;20035;-67
2023/10/22 02:24:39;;;;;;;0.00;0.00;;;;;;;13.93;100.00;99847.41;5087071;28;20384;-69
2023/10/22 02:27:05;;;;;;;0.00;0.00;;;;;;;13.91;100.00;99844.16;5065051;28;20032;-68
2023/10/22 02:29:31;;;;;;;4.75;0.00;;;;;;;13.93;100.00;99843.00;5079611;28;20454;-67
2023/10/22 02:31:56;;;;;;;0.93;0.00;;;;;;;13.94;100.00;99852.47;5075218;28;20025;-68
2023/10/22 02:34:22;;;;;;;0.08;0.00;;;;;;;13.98;100.00;99852.09;5083720;28;20028;-67
2023/10/22 02:36:47;;;;;;;0.43;0.00;;;;;;;13.93;100.00;99856.09;5059357;28;20032;-68
2023/10/22 02:39:12;;;;;;;0.00;0.00;;;;;;;13.96;100.00;99854.91;5078774;28;20483;-68
2023/10/22 02:41:38;;;;;;;2.65;0.00;;;;;;;13.99;100.00;99859.78;5084873;28;20042;-68
2023/10/22 02:44:04;;;;;;;0.20;0.03;;;;;;;13.99;100.00;99864.22;5083316;28;20085;-68
2023/10/22 02:46:30;;;;;;;0.93;0.00;;;;;;;13.98;100.00;99860.78;5078799;28;20032;-68
2023/10/22 02:48:55;;;;;;;0.10;0.00;;;;;;;14.01;100.00;99863.03;5086878;28;20024;-68
2023/10/22 02:51:22;;;;;;;0.15;0.00;;;;;;;13.99;100.00;99867.66;5079651;28;20453;-68
2023/10/22 02:53:47;;;;;;;0.10;0.00;;;;;;;14.01;100.00;99873.50;5082506;28;20454;-68
2023/10/22 02:56:13;;;;;;;0.13;0.00;;;;;;;14.00;100.00;99876.31;5083228;28;20035;-67
2023/10/22 02:58:40;;;;;;;0.00;0.00;;;;;;;14.01;100.00;99889.22;5088465;28;20067;-67
2023/10/22 03:01:07;;;;;;;0.20;0.00;;;;;;;14.01;100.00;99884.00;5084183;28;20028;-68
2023/10/22 03:03:38;;;;;;;0.00;0.00;;;;;;;13.94;100.00;99897.00;5088102;28;20025;-68
2023/10/22 03:06:04;;;;;;;0.30;0.00;;;;;;;13.95;100.00;99897.81;5085445;28;20051;-68
2023/10/22 03:08:31;;;;;;;0.10;0.00;;;;;;;13.92;100.00;99900.78;5086871;28;20028;-68
2023/10/22 03:10:56;;;;;;;3.20;0.00;;;;;;;13.93;100.00;99891.94;5089974;28;20122;-68
2023/10/22 03:13:22;;;;;;;0.13;0.00;;;;;;;13.94;100.00;99896.19;5086798;28;20028;-68
2023/10/22 03:15:47;;;;;;;0.17;0.00;;;;;;;13.96;100.00;99902.06;5084669;28;20397;-68
2023/10/22 03:18:13;;;;;;;0.55;0.00;;;;;;;13.94;100.00;99904.84;5079371;28;20040;-68
2023/10/22 03:20:39;;;;;;;0.10;0.00;;;;;;;13.92;100.00;99906.84;5085673;28;20058;-68
2023/10/22 03:23:06;;;;;;;0.40;0.00;;;;;;;13.96;100.00;99915.16;5088166;28;20471;-68
2023/10/22 03:25:33;;;;;;;0.10;0.00;;;;;;;13.92;100.00;99913.88;5076972;28;20444;-68
2023/10/22 03:28:00;;;;;;;0.32;0.08;;;;;;;13.86;100.00;99917.22;5068074;28;20039;-68
2023/10/22 03:30:26;;;;;;;0.00;0.00;;;;;;;13.87;100.00;99924.06;5085534;28;20027;-68
2023/10/22 03:32:54;;;;;;;0.22;0.00;;;;;;;13.87;100.00;99930.13;5083348;28;20036;-68
2023/10/22 03:35:19;;;;;;;1.00;0.10;;;;;;;13.91;100.00;99931.41;5090506;28;20035;-68
2023/10/22 03:37:45;;;;;;;0.10;0.10;;;;;;;13.93;100.00;99920.75;5083408;28;20097;-68
2023/10/22 03:40:11;;;;;;;0.20;0.10;;;;;;;13.97;100.00;99924.63;5078006;28;20039;-68
2023/10/22 03:42:36;;;;;;;0.30;0.10;;;;;;;13.98;100.00;99925.44;5087281;28;20468;-68
2023/10/22 03:45:02;;;;;;;0.10;0.05;;;;;;;14.05;100.00;99932.41;5079333;28;20137;-68
2023/10/22 03:47:27;;;;;;;0.75;0.10;;;;;;;14.09;100.00;99925.00;5081920;28;20484;-68
2023/10/22 03:49:53;;;;;;;0.35;0.05;;;;;;;14.04;100.00;99929.97;5088965;28;20025;-68
2023/10/22 03:52:18;;;;;;;0.13;0.03;;;;;;;14.00;100.00;99933.94;5095627;28;20031;-68
2023/10/22 03:54:44;;;;;;;0.45;0.00;;;;;;;14.00;100.00;99929.50;5086782;28;20027;-68
2023/10/22 03:57:09;;;;;;;1.83;0.10;;;;;;;13.98;100.00;99931.50;5080376;28;20063;-69
2023/10/22 03:59:35;;;;;;;0.50;0.00;;;;;;;13.99;100.00;99934.94;5085625;28;20090;-67
2023/10/22 04:02:01;;;;;;;0.60;0.10;;;;;;;13.99;100.00;99933.13;5094293;28;20036;-68
2023/10/22 04:04:26;;;;;;;0.03;0.00;;;;;;;13.98;100.00;99931.50;5077697;28;20082;-67
2023/10/22 04:06:51;;;;;;;0.10;0.00;;;;;;;13.99;100.00;99937.53;5078559;28;20056;-67
2023/10/22 04:09:17;;;;;;;0.20;0.10;;;;;;;14.02;100.00;99938.00;5092994;28;20114;-68
2023/10/22 04:11:42;;;;;;;0.60;0.08;;;;;;;14.07;100.00;99940.91;5082846;28;20036;-67
2023/10/22 04:14:08;;;;;;;0.40;0.10;;;;;;;14.06;100.00;99943.69;5064531;28;20198;-68
2023/10/22 04:16:33;;;;;;;0.40;0.00;;;;;;;14.04;100.00;99940.44;5090605;28;20032;-67
2023/10/22 04:18:58;;;;;;;0.47;0.10;;;;;;;14.05;100.00;99940.25;5084692;28;20626;-67
2023/10/22 04:21:24;;;;;;;0.10;0.00;;;;;;;14.03;100.00;99944.88;5092090;28;20020;-67
2023/10/22 04:23:50;;;;;;;0.63;0.10;;;;;;;14.01;100.00;99944.22;5094721;28;20039;-68
2023/10/22 04:26:16;;;;;;;0.55;0.10;;;;;;;13.99;100.00;99938.34;5087139;28;20033;-68
2023/10/22 04:28:47;;;;;;;0.30;0.00;;;;;;;13.99;100.00;99946.22;5066957;28;20055;-67
2023/10/22 04:31:13;;;;;;;0.40;0.00;;;;;;;13.93;100.00;99952.97;5082822;28;20029;-68
2023/10/22 04:33:38;;;;;;;0.20;0.00;;;;;;;13.95;100.00;99953.63;5063438;28;20082;-67
2023/10/22 04:36:04;;;;;;;0.00;0.00;;;;;;;13.97;100.00;99955.25;5081871;28;20091;-68
2023/10/22 04:38:31;;;;;;;0.10;0.00;;;;;;;13.95;100.00;99963.28;5082350;28;20037;-68
2023/10/22 04:40:57;;;;;;;0.98;0.00;;;;;;;13.96;100.00;99964.91;5089203;28;20077;-67
2023/10/22 04:43:22;;;;;;;0.25;0.10;;;;;;;13.97;100.00;99970.97;5092127;28;20082;-67
2023/10/22 04:45:49;;;;;;;0.10;0.00;;;;;;;13.98;100.00;99973.41;5090640;28;20025;-67
2023/10/22 04:48:14;;;;;;;0.93;0.10;;;;;;;13.92;100.00;99981.97;5084597;28;20433;-67
2023/10/22 04:50:41;;;;;;;0.20;0.00;;;;;;;13.92;100.00;99979.34;5089493;28;20197;-67
2023/10/22 04:53:07;;;;;;;0.73;0.00;;;;;;;13.91;100.00;99965.44;5087682;28;20028;-67
2023/10/22 04:55:32;;;;;;;0.20;0.00;;;;;;;13.87;100.00;99972.03;5085900;28;20365;-68
2023/10/22 04:57:58;;;;;;;2.10;0.10;;;;;;;13.86;100.00;99964.34;5084019;28;20020;-67
2023/10/22 05:00:23;;;;;;;0.10;0.00;;;;;;;13.82;100.00;99978.78;5088240;28;20028;-68
2023/10/22 05:02:50;;;;;;;0.10;0.00;;;;;;;13.77;100.00;99986.34;5090876;28;20485;-67
2023/10/22 05:05:15;;;;;;;0.15;0.00;;;;;;;13.73;100.00;99990.31;5082933;28;20063;-68
2023/10/22 05:07:41;;;;;;;0.43;0.10;;;;;;;13.79;100.00;99981.75;5087521;28;20074;-67
2023/10/22 05:10:07;;;;;;;0.95;0.20;;;;;;;13.86;100.00;99988.72;5092570;28;20085;-68
2023/10/22 05:12:32;;;;;;;0.50;0.10;;;;;;;13.86;100.00;100001.00;5086184;28;20506;-68
2023/10/22 05:14:58;;;;;;;0.65;0.05;;;;;;;13.88;100.00;100004.25;5089304;28;20024;-68
2023/10/22 05:17:24;;;;;;;0.52;0.00;;;;;;;13.87;100.00;100005.25;5090331;28;20103;-67
2023/10/22 05:19:50;;;;;;;2.75;0.13;;;;;;;13.82;100.00;100010.19;5090420;28;20024;-68
2023/10/22 05:22:17;;;;;;;3.78;0.10;;;;;;;13.80;100.00;100018.22;5089928;28;20143;-68
2023/10/22 05:24:47;;;;;;;0.35;0.00;;;;;;;13.81;100.00;100016.44;5093317;28;20131;-67
2023/10/22 05:27:13;;;;;;;1.00;0.00;;;;;;;13.81;100.00;100021.66;5085250;28;20063;-67
2023/10/22 05:29:39;;;;;;;0.22;0.00;;;;;;;13.82;100.00;100028.53;5086166;28;20060;-68
2023/10/22 05:32:04;;;;;;;0.55;0.00;;;;;;;13.85;100.00;100034.22;5091550;28;20110;-67
2023/10/22 05:34:31;;;;;;;1.48;0.63;;;;;;;13.86;100.00;100042.91;5090512;28;20032;-67
2023/10/22 05:36:57;;;;;;;0.08;0.00;;;;;;;13.87;100.00;100045.34;5090726;28;20549;-67
2023/10/22 05:39:22;;;;;;;0.20;0.00;;;;;;;13.91;100.00;100043.19;5068552;28;20040;-68
2023/10/22 05:41:47;;;;;;;0.10;0.00;;;;;;;13.95;100.00;100041.84;5090706;28;20502;-67
2023/10/22 05:44:13;;;;;;;0.30;0.28;;;;;;;13.99;100.00;100052.78;5076616;28;20017;-67
2023/10/22 05:46:38;;;;;;;0.68;0.00;;;;;;;14.03;100.00;100054.06;5086946;28;20122;-67
2023/10/22 05:49:04;;;;;;;0.55;0.10;;;;;;;14.05;100.00;100058.13;5084212;28;20058;-68
2023/10/22 05:51:30;;;;;;;0.22;0.00;;;;;;;14.09;100.00;100064.66;5088442;28;20047;-68
2023/10/22 05:53:56;;;;;;;0.20;0.10;;;;;;;14.05;100.00;100058.13;5091541;28;20522;-68
2023/10/22 05:56:23;;;;;;;0.63;0.10;;;;;;;14.03;100.00;100065.34;5069159;28;20067;-68
2023/10/22 05:58:49;;;;;;;0.20;0.00;;;;;;;14.01;100.00;100072.56;5082503;28;20460;-68
2023/10/22 06:01:14;;;;;;;0.30;0.00;;;;;;;14.01;100.00;100072.56;5087891;28;20028;-67
2023/10/22 06:03:40;;;;;;;0.47;0.10;;;;;;;13.99;100.00;100084.22;5085833;28;20051;-68
2023/10/22 06:06:05;;;;;;;1.00;0.10;;;;;;;14.02;100.00;100083.88;5074063;28;20037;-67
2023/10/22 06:08:31;;;;;;;0.17;0.00;;;;;;;14.06;100.00;100096.44;5076306;28;20054;-68
2023/10/22 06:10:56;;;;;;;1.98;0.10;;;;;;;14.11;100.00;100091.50;5050608;28;20033;-68
2023/10/22 06:13:22;;;;;;;3.03;0.20;;;;;;;14.09;100.00;100088.22;5074187;28;20123;-68
2023/10/22 06:15:47;;;;;;;0.32;0.10;;;;;;;14.05;100.00;100092.19;5062349;28;20093;-68
2023/10/22 06:18:13;;;;;;;0.30;0.10;;;;;;;14.07;100.00;100098.06;5069222;28;20080;-68
2023/10/22 06:20:39;;;;;;;2.92;0.20;;;;;;;14.10;100.00;100097.72;5069672;28;20041;-68
2023/10/22 06:23:05;;;;;;;0.32;0.13;;;;;;;14.15;100.00;100097.19;5073351;28;20079;-68
2023/10/22 06:25:31;;;;;;;0.95;0.15;;;;;;;14.20;100.00;100106.13;5071410;28;20039;-68
2023/10/22 06:27:58;;;;;;;2.50;0.20;;;;;;;14.23;100.00;100112.81;5068261;28;20442;-68
2023/10/22 06:30:25;;;;;;;4.32;0.38;;;;;;;14.23;100.00;100124.13;5061037;28;20078;-68
2023/10/22 06:32:55;;;;;;;3.05;0.20;;;;;;;14.27;100.00;100120.16;5061746;28;20032;-68
2023/10/22 06:35:21;;;;;;;8.40;0.20;;;;;;;14.35;100.00;100123.69;5042581;28;20025;-68
2023/10/22 06:37:47;;;;;;;0.30;0.10;;;;;;;14.35;100.00;100131.56;5078658;28;20042;-68
2023/10/22 06:40:13;;;;;;;0.98;0.20;;;;;;;14.36;100.00;100135.81;5062126;28;20826;-68
2023/10/22 06:42:40;;;;;;;0.30;0.00;;;;;;;14.33;100.00;100134.34;5066280;28;20148;-68
2023/10/22 06:45:07;;;;;;;0.25;0.00;;;;;;;14.33;100.00;100136.16;5069090;28;20085;-68
2023/10/22 06:47:38;;;;;;;1.33;0.03;;;;;;;14.34;100.00;100140.41;5073719;28;20036;-68
2023/10/22 06:50:05;;;;;;;1.52;0.10;;;;;;;14.39;100.00;100138.09;5064831;28;20063;-68
2023/10/22 06:52:31;;;;;;;4.93;0.20;;;;;;;14.44;100.00;100146.25;5062846;28;20033;-68
2023/10/22 06:54:57;;;;;;;0.28;0.10;;;;;;;14.52;100.00;100154.88;5070724;28;20032;-69
2023/10/22 06:57:22;;;;;;;0.57;0.10;;;;;;;14.56;100.00;100145.66;5063026;28;20124;-68
2023/10/22 06:59:48;;;;;;;0.40;0.10;;;;;;;14.57;100.00;100152.53;5049405;28;20028;-69
2023/10/22 07:02:15;;;;;;;0.20;0.10;;;;;;;14.62;100.00;100146.75;5062078;28;20028;-69
2023/10/22 07:04:42;;;;;;;2.38;0.20;;;;;;;14.62;100.00;100151.19;5066685;28;20075;-69
2023/10/22 07:07:08;;;;;;;0.25;0.10;;;;;;;14.56;100.00;100156.16;5085768;28;20032;-69
2023/10/22 07:09:33;;;;;;;3.03;0.20;;;;;;;14.53;100.00;100156.50;5088640;28;20044;-69
2023/10/22 07:11:58;;;;;;;0.40;0.10;;;;;;;14.50;100.00;100154.25;5086945;28;20024;-69
2023/10/22 07:14:24;;;;;;;0.50;0.13;;;;;;;14.51;100.00;100152.44;5085577;28;20035;-68
2023/10/22 07:16:49;;;;;;;0.30;0.10;;;;;;;14.55;100.00;100159.75;5081846;28;20428;-68
2023/10/22 07:19:15;;;;;;;0.75;0.10;;;;;;;14.56;100.00;100157.97;5085427;28;20024;-68
2023/10/22 07:21:40;;;;;;;2.40;0.10;;;;;;;14.59;100.00;100168.09;5088161;28;20031;-68
2023/10/22 07:24:06;;;;;;;1.30;0.10;;;;;;;14.63;100.00;100166.75;5082678;28;20029;-68
2023/10/22 07:26:32;;;;;;;1.15;0.20;;;;;;;14.66;100.00;100179.47;5086150;28;20090;-68
2023/10/22 07:28:58;;;;;;;1.08;0.20;;;;;;;14.69;100.00;100186.97;5069705;28;20044;-68
2023/10/22 07:31:23;;;;;;;1.58;0.20;;;;;;;14.75;100.00;100181.03;5090083;28;20035;-68
2023/10/22 07:33:50;;;;;;;2.92;0.30;;;;;;;14.81;100.00;100190.00;5092671;28;20384;-68
2023/10/22 07:36:15;;;;;;;2.42;0.40;;;;;;;14.86;100.00;100179.78;5092614;28;20511;-69
2023/10/22 07:38:41;;;;;;;3.20;0.40;;;;;;;14.89;100.00;100195.97;5073766;28;20036;-68
2023/10/22 07:41:13;;;;;;;1.50;0.30;;;;;;;14.92;100.00;100198.25;5088815;28;20044;-69
2023/10/22 07:43:39;;;;;;;1.50;0.47;;;;;;;14.96;100.00;100200.53;5091868;28;20028;-68
2023/10/22 07:46:05;;;;;;;1.90;0.17;;;;;;;15.00;100.00;100196.53;5080097;28;20476;-69
2023/10/22 07:48:32;;;;;;;1.33;0.20;;;;;;;15.06;100.00;100208.94;5081740;28;20032;-69
2023/10/22 07:51:18;;;;;;;0.68;0.20;;;;;;;15.10;100.00;100218.91;5089648;28;20021;-69
2023/10/22 07:53:45;;;;;;;0.30;0.10;;;;;;;15.14;100.00;100221.97;5091141;28;20024;-69
2023/10/22 07:56:11;;;;;;;0.50;0.10;;;;;;;15.20;100.00;100221.25;5092609;28;20093;-69
2023/10/22 07:58:38;;;;;;;2.17;0.20;;;;;;;15.24;100.00;100219.88;5090989;28;20074;-69
2023/10/22 08:01:06;;;;;;;1.48;0.20;;;;;;;15.32;100.00;100235.56;5086614;28;20051;-69
2023/10/22 08:03:32;;;;;;;1.15;0.20;;;;;;;15.36;100.00;100236.00;5091100;28;20483;-69
2023/10/22 08:05:58;;;;;;;0.50;0.20;;;;;;;15.36;100.00;100228.13;5085143;28;20501;-69
2023/10/22 08:08:23;;;;;;;1.17;0.10;;;;;;;15.41;100.00;100236.28;5091590;28;20032;-69
2023/10/22 08:10:49;;;;;;;0.32;0.10;;;;;;;15.49;100.00;100238.81;5086163;28;20023;-69
2023/10/22 08:13:15;;;;;;;1.15;0.20;;;;;;;15.49;100.00;100237.00;5086467;28;20035;-69
2023/10/22 08:15:41;;;;;;;0.30;0.20;;;;;;;15.58;100.00;100243.84;5090789;28;20521;-69
2023/10/22 08:18:06;;;;;;;2.05;0.80;;;;;;;15.66;100.00;100250.78;5092222;28;20031;-69
2023/10/22 08:20:32;;;;;;;1.20;0.10;;;;;;;15.70;100.00;100259.91;5083350;28;20457;-69
2023/10/22 08:22:58;;;;;;;0.65;0.20;;;;;;;15.76;100.00;100253.13;5086553;28;20032;-69
2023/10/22 08:25:23;;;;;;;1.67;0.20;;;;;;;15.83;100.00;100265.34;5087467;28;20562;-69
2023/10/22 08:27:49;;;;;;;0.93;0.20;;;;;;;15.90;100.00;100266.25;5085015;28;20028;-69
2023/10/22 08:30:14;;;;;;;1.13;0.22;;;;;;;15.87;100.00;100263.16;5087476;28;20063;-69
2023/10/22 08:32:46;;;;;;;0.65;0.20;;;;;;;15.91;100.00;100273.13;5086082;28;20028;-69
2023/10/22 08:35:12;;;;;;;3.80;0.32;;;;;;;16.01;100.00;100278.09;5086401;28;20473;-69
2023/10/22 08:37:41;;;;;;;1.85;0.40;;;;;;;16.03;100.00;100276.09;5091067;28;20123;-70
2023/10/22 08:40:08;;;;;;;0.70;0.17;;;;;;;16.04;100.00;100277.75;5086916;28;20032;-69
2023/10/22 08:42:35;;;;;;;1.67;0.20;;;;;;;16.05;100.00;100284.63;5090732;28;20040;-69
2023/10/22 08:45:02;;;;;;;1.30;0.10;;;;;;;16.06;100.00;100283.63;5080618;28;20577;-70
2023/10/22 08:47:29;;;;;;;0.95;0.10;;;;;;;16.05;100.00;100279.38;5088164;28;20490;-69
2023/10/22 08:49:55;;;;;;;0.13;0.00;;;;;;;16.11;100.00;100281.22;5088824;28;20043;-69
2023/10/22 08:52:22;;;;;;;0.50;0.00;;;;;;;16.27;100.00;100283.66;5083323;28;20118;-69
2023/10/22 08:54:48;;;;;;;1.33;0.10;;;;;;;16.36;100.00;100288.78;5083433;28;20032;-69
2023/10/22 08:57:15;;;;;;;2.72;0.10;;;;;;;16.48;100.00;100289.94;5087989;28;20032;-69
2023/10/22 08:59:40;;;;;;;1.08;0.10;;;;;;;16.51;100.00;100294.81;5085670;28;20028;-70
2023/10/22 09:02:11;;;;;;;0.90;0.10;;;;;;;16.43;100.00;100292.31;5088636;28;20556;-70
2023/10/22 09:04:38;;;;;;;0.90;0.13;;;;;;;16.46;100.00;100297.19;5084833;28;20041;-70
2023/10/22 09:07:03;;;;;;;0.30;0.10;;;;;;;16.53;100.00;100287.56;5089110;28;20044;-70
2023/10/22 09:09:32;;;;;;;1.83;0.10;;;;;;;16.58;100.00;100295.69;5090710;28;20027;-70
2023/10/22 09:11:58;;;;;;;0.73;0.10;;;;;;;16.58;100.00;100301.75;5083412;28;20024;-70
2023/10/22 09:14:24;;;;;;;0.73;0.10;;;;;;;16.63;100.00;100295.13;5083662;28;20033;-71
2023/10/22 09:16:50;;;;;;;0.20;0.00;;;;;;;16.59;100.00;100292.03;5087450;28;20032;-70
2023/10/22 09:19:36;;;;;;;0.38;0.10;;;;;;;16.53;100.00;100292.81;5086713;28;20515;-71
2023/10/22 09:22:03;;;;;;;0.85;0.08;;;;;;;16.59;100.00;100300.75;5085387;28;20032;-71
2023/10/22 09:24:28;;;;;;;0.68;0.10;;;;;;;16.53;100.00;100296.25;5084386;28;20025;-71
2023/10/22 09:26:54;;;;;;;4.90;0.10;;;;;;;16.52;100.00;100301.72;5083671;28;20036;-70
2023/10/22 09:29:19;;;;;;;0.38;0.10;;;;;;;16.49;100.00;100302.09;5083153;28;20047;-70
2023/10/22 09:31:53;;;;;;;1.77;0.10;;;;;;;16.38;100.00;100302.56;5089921;28;20039;-70
2023/10/22 09:34:32;;;;;;;0.65;0.10;;;;;;;16.30;100.00;100306.13;5083889;28;20028;-71
2023/10/22 09:36:58;;;;;;;1.33;0.10;;;;;;;16.27;100.00;100301.22;5084123;28;20024;-71
2023/10/22 09:39:37;;;;;;;0.50;0.03;;;;;;;16.25;100.00;100311.13;5087599;28;20104;-71
2023/10/22 09:42:04;;;;;;;0.63;0.03;;;;;;;16.30;100.00;100318.44;5088286;28;20096;-70
2023/10/22 09:44:31;;;;;;;1.23;0.08;;;;;;;16.33;100.00;100312.81;5089587;28;20020;-70
2023/10/22 09:47:00;;;;;;;2.50;0.10;;;;;;;16.37;100.00;100314.09;5086290;28;20490;-70
2023/10/22 09:49:28;;;;;;;0.70;0.10;;;;;;;16.40;100.00;100324.22;5085091;28;20039;-70
2023/10/22 09:51:57;;;;;;;0.90;0.00;;;;;;;16.43;100.00;100321.22;5088489;28;20066;-71
2023/10/22 09:54:27;;;;;;;0.30;0.10;;;;;;;16.43;100.00;100319.41;5087214;28;20502;-69
2023/10/22 09:56:53;;;;;;;2.28;0.10;;;;;;;16.44;100.00;100320.22;5088788;28;20032;-71
2023/10/22 09:59:22;;;;;;;2.50;0.08;;;;;;;16.29;100.00;100316.81;5086584;28;20411;-71
2023/10/22 10:01:51;;;;;;;2.15;0.08;;;;;;;16.43;100.00;100321.22;5083883;28;20108;-70
2023/10/22 10:04:19;;;;;;;0.10;0.00;;;;;;;16.57;100.00;100322.97;5086753;28;20467;-70
2023/10/22 10:06:46;;;;;;;0.10;0.00;;;;;;;16.56;100.00;100326.59;5069180;28;20530;-70
2023/10/22 10:09:11;;;;;;;0.55;0.00;;;;;;;16.50;100.00;100322.13;5068911;28;20115;-70
2023/10/22 10:11:38;;;;;;;0.63;0.10;;;;;;;16.46;100.00;100328.75;5066430;28;20124;-71
2023/10/22 10:14:13;;;;;;;0.20;0.10;;;;;;;16.43;100.00;100324.69;5068980;28;20025;-70
2023/10/22 10:16:43;;;;;;;0.60;0.10;;;;;;;16.46;100.00;100329.56;5067334;28;20389;-71
2023/10/22 10:19:08;;;;;;;0.00;0.00;;;;;;;16.50;100.00;100332.63;5069562;28;20035;-70
2023/10/22 10:21:34;;;;;;;0.10;0.00;;;;;;;16.45;100.00;100327.13;5067387;28;20028;-71
2023/10/22 10:24:17;;;;;;;0.98;0.10;;;;;;;16.35;100.00;100316.91;5069181;28;20433;-70
2023/10/22 10:26:47;;;;;;;0.55;0.00;;;;;;;16.37;100.00;100314.09;5066764;28;20039;-71
2023/10/22 10:29:25;;;;;;;0.57;0.10;;;;;;;16.33;100.00;100316.25;5064241;28;20032;-71
2023/10/22 10:31:51;;;;;;;0.47;0.00;;;;;;;16.26;100.00;100313.56;5069213;28;20025;-71
2023/10/22 10:34:27;;;;;;;1.25;0.10;;;;;;;16.34;100.00;100309.19;5070106;28;20479;-70
2023/10/22 10:36:53;;;;;;;0.30;0.10;;;;;;;16.35;100.00;100316.09;5062534;28;20132;-71
2023/10/22 10:39:40;;;;;;;0.28;0.00;;;;;;;16.40;100.00;100311.09;5070364;28;20387;-71
2023/10/22 10:42:07;;;;;;;1.38;0.10;;;;;;;16.62;100.00;100311.91;5064801;28;20464;-66
2023/10/22 10:44:52;;;;;;;0.55;0.10;;;;;;;16.70;100.00;100304.72;5059361;28;20032;-66
2023/10/22 10:47:21;;;;;;;0.20;0.10;;;;;;;16.74;100.00;100305.19;5065487;28;20528;-67
2023/10/22 10:50:02;;;;;;;0.10;0.00;;;;;;;16.69;100.00;100305.72;5059446;28;20044;-66
2023/10/22 10:52:31;;;;;;;0.73;0.20;;;;;;;16.73;100.00;100309.63;5065700;28;20036;-67
2023/10/22 10:55:20;;;;;;;0.20;0.10;;;;;;;16.70;100.00;100314.44;5058381;28;20083;-67
2023/10/22 10:57:53;;;;;;;1.20;0.38;;;;;;;16.73;100.00;100308.81;5044648;28;20039;-67
2023/10/22 11:00:32;;;;;;;2.63;0.20;;;;;;;16.68;100.00;100317.25;5065406;28;20115;-67
2023/10/22 11:03:02;;;;;;;0.57;0.10;;;;;;;16.62;100.00;100312.72;5062253;28;20025;-67
2023/10/22 11:05:32;;;;;;;0.57;0.10;;;;;;;16.67;100.00;100318.25;5078678;28;20132;-67
2023/10/22 11:07:58;;;;;;;0.17;0.00;;;;;;;16.72;100.00;100318.50;5082517;28;20032;-67
2023/10/22 11:10:24;;;;;;;1.20;0.08;;;;;;;16.63;100.00;100310.91;5081936;28;20078;-67
2023/10/22 11:12:53;;;;;;;0.65;0.10;;;;;;;16.71;100.00;100306.38;5085288;28;20039;-67
2023/10/22 11:15:18;;;;;;;1.88;0.10;;;;;;;16.76;100.00;100298.72;5079422;28;20101;-67
2023/10/22 11:17:45;;;;;;;0.50;0.10;;;;;;;16.74;100.00;100306.00;5081680;28;20036;-66
2023/10/22 11:20:13;;;;;;;0.80;0.10;;;;;;;16.71;100.00;100309.00;5081055;28;20040;-66